createdAt,value
2022-09-18T00:01:34.153Z,12.55
2022-09-18T00:04:05.358Z,12.54
2022-09-18T00:06:36.966Z,12.55
2022-09-18T00:09:10.841Z,12.59
2022-09-18T00:11:45.064Z,12.61
2022-09-18T00:14:20.515Z,12.54
2022-09-18T00:16:48.305Z,12.49
2022-09-18T00:19:17.166Z,12.48
2022-09-18T00:21:48.461Z,12.53
2022-09-18T00:24:17.760Z,12.53
2022-09-18T00:26:46.488Z,12.43
2022-09-18T00:29:15.188Z,12.36
2022-09-18T00:31:42.554Z,12.20
2022-09-18T00:34:14.578Z,12.22
2022-09-18T00:36:42.208Z,12.20
2022-09-18T00:39:09.363Z,12.22
2022-09-18T00:41:41.834Z,12.16
2022-09-18T00:44:38.189Z,12.16
2022-09-18T00:47:10.527Z,12.16
2022-09-18T00:49:44.551Z,12.15
2022-09-18T00:52:14.549Z,12.05
2022-09-18T00:54:47.558Z,12.02
2022-09-18T00:57:27.499Z,11.98
2022-09-18T00:59:55.327Z,11.90
2022-09-18T01:02:22.762Z,11.95
2022-09-18T01:04:51.363Z,11.92
2022-09-18T01:07:49.982Z,11.95
2022-09-18T01:10:39.117Z,11.87
2022-09-18T01:13:45.542Z,11.83
2022-09-18T01:16:32.253Z,11.84
2022-09-18T01:19:36.791Z,11.75
2022-09-18T01:22:34.346Z,11.73
2022-09-18T01:25:59.368Z,11.74
2022-09-18T01:28:45.190Z,11.71
2022-09-18T01:31:26.048Z,11.69
2022-09-18T01:34:04.690Z,11.60
2022-09-18T01:36:39.972Z,11.56
2022-09-18T01:39:26.127Z,11.59
2022-09-18T01:41:56.034Z,11.64
2022-09-18T01:44:31.036Z,11.64
2022-09-18T01:47:01.607Z,11.67
2022-09-18T01:49:37.379Z,11.67
2022-09-18T01:52:16.710Z,11.69
2022-09-18T01:54:50.152Z,11.71
2022-09-18T01:57:39.241Z,11.71
2022-09-18T02:00:11.666Z,11.71
2022-09-18T02:02:47.138Z,11.70
2022-09-18T02:05:25.069Z,11.70
2022-09-18T02:08:04.189Z,11.67
2022-09-18T02:10:38.414Z,11.70
2022-09-18T02:13:09.951Z,11.66
2022-09-18T02:15:40.239Z,11.71
2022-09-18T02:18:27.180Z,11.75
2022-09-18T02:20:57.296Z,11.77
2022-09-18T02:23:28.176Z,11.71
2022-09-18T02:26:02.048Z,11.65
2022-09-18T02:28:32.464Z,11.49
2022-09-18T02:30:59.483Z,11.53
2022-09-18T02:33:30.608Z,11.59
2022-09-18T02:36:21.996Z,11.56
2022-09-18T02:39:26.255Z,11.52
2022-09-18T02:42:23.209Z,11.50
2022-09-18T02:45:20.518Z,11.49
2022-09-18T02:48:20.224Z,11.40
2022-09-18T02:51:29.070Z,11.35
2022-09-18T02:54:20.027Z,11.31
2022-09-18T02:56:57.218Z,11.27
2022-09-18T02:59:45.326Z,11.32
2022-09-18T03:02:13.195Z,11.36
2022-09-18T03:04:40.080Z,11.33
2022-09-18T03:07:06.965Z,11.36
2022-09-18T03:09:34.827Z,11.30
2022-09-18T03:12:02.914Z,11.27
2022-09-18T03:14:29.735Z,11.35
2022-09-18T03:16:56.673Z,11.39
2022-09-18T03:19:23.607Z,11.28
2022-09-18T03:21:51.261Z,11.27
2022-09-18T03:24:19.499Z,11.25
2022-09-18T03:26:47.349Z,11.23
2022-09-18T03:29:14.640Z,11.07
2022-09-18T03:31:41.682Z,11.11
2022-09-18T03:34:08.642Z,11.10
2022-09-18T03:36:36.342Z,10.99
2022-09-18T03:39:04.469Z,11.06
2022-09-18T03:41:31.829Z,11.11
2022-09-18T03:43:58.599Z,11.20
2022-09-18T03:46:25.676Z,11.18
2022-09-18T03:48:53.716Z,11.25
2022-09-18T03:51:20.944Z,11.22
2022-09-18T03:53:51.056Z,11.05
2022-09-18T03:56:18.424Z,11.05
2022-09-18T03:58:45.425Z,11.07
2022-09-18T04:01:13.742Z,11.05
2022-09-18T04:03:40.892Z,11.00
2022-09-18T04:06:08.201Z,11.00
2022-09-18T04:08:36.164Z,10.97
2022-09-18T04:11:04.620Z,10.83
2022-09-18T04:13:33.611Z,10.86
2022-09-18T04:16:00.973Z,10.85
2022-09-18T04:18:28.550Z,10.81
2022-09-18T04:20:55.317Z,10.76
2022-09-18T04:23:22.263Z,10.69
2022-09-18T04:25:49.206Z,10.70
2022-09-18T04:28:16.057Z,10.69
2022-09-18T04:30:43.253Z,10.66
2022-09-18T04:33:10.077Z,10.71
2022-09-18T04:35:36.890Z,10.69
2022-09-18T04:38:04.059Z,10.71
2022-09-18T04:40:31.336Z,10.67
2022-09-18T04:42:58.683Z,10.69
2022-09-18T04:45:25.747Z,10.66
2022-09-18T04:47:52.642Z,10.76
2022-09-18T04:50:19.534Z,10.59
2022-09-18T04:52:46.523Z,10.81
2022-09-18T04:55:13.336Z,10.77
2022-09-18T04:57:41.065Z,10.85
2022-09-18T05:00:09.871Z,10.74
2022-09-18T05:02:38.797Z,10.77
2022-09-18T05:05:06.128Z,10.87
2022-09-18T05:07:33.115Z,10.86
2022-09-18T05:10:01.061Z,10.97
2022-09-18T05:12:28.070Z,10.98
2022-09-18T05:14:55.036Z,11.05
2022-09-18T05:17:21.984Z,11.11
2022-09-18T05:19:48.817Z,11.09
2022-09-18T05:22:15.827Z,11.13
2022-09-18T05:24:42.615Z,11.11
2022-09-18T05:27:09.480Z,11.17
2022-09-18T05:29:36.556Z,11.14
2022-09-18T05:32:03.631Z,11.15
2022-09-18T05:34:30.929Z,11.16
2022-09-18T05:36:57.910Z,11.15
2022-09-18T05:39:24.766Z,11.23
2022-09-18T05:41:51.533Z,11.23
2022-09-18T05:44:20.093Z,11.25
2022-09-18T05:46:48.521Z,11.27
2022-09-18T05:49:15.507Z,11.35
2022-09-18T05:51:42.540Z,11.31
2022-09-18T05:54:09.375Z,11.39
2022-09-18T05:56:36.265Z,11.31
2022-09-18T05:59:03.223Z,11.27
2022-09-18T06:01:31.565Z,11.41
2022-09-18T06:03:59.641Z,11.43
2022-09-18T06:06:30.239Z,11.50
2022-09-18T06:08:57.673Z,11.48
2022-09-18T06:11:24.802Z,11.51
2022-09-18T06:13:52.576Z,11.55
2022-09-18T06:16:20.706Z,11.61
2022-09-18T06:18:47.625Z,11.65
2022-09-18T06:21:15.094Z,11.62
2022-09-18T06:23:42.693Z,11.64
2022-09-18T06:26:14.710Z,11.67
2022-09-18T06:28:42.834Z,11.59
2022-09-18T06:31:09.972Z,11.57
2022-09-18T06:33:36.896Z,11.51
2022-09-18T06:36:08.848Z,11.53
2022-09-18T06:38:36.114Z,11.53
2022-09-18T06:41:03.302Z,11.56
2022-09-18T06:43:30.697Z,11.54
2022-09-18T06:45:58.758Z,11.57
2022-09-18T06:48:27.067Z,11.59
2022-09-18T06:50:57.088Z,11.64
2022-09-18T06:53:24.904Z,11.68
2022-09-18T06:55:52.404Z,11.76
2022-09-18T06:58:20.616Z,11.79
2022-09-18T07:00:47.736Z,11.79
2022-09-18T07:03:14.673Z,11.85
2022-09-18T07:05:47.030Z,11.83
2022-09-18T07:08:14.146Z,11.80
2022-09-18T07:10:41.111Z,11.80
2022-09-18T07:13:08.544Z,11.85
2022-09-18T07:15:36.056Z,11.92
2022-09-18T07:18:09.310Z,11.95
2022-09-18T07:20:36.513Z,11.98
2022-09-18T07:23:03.820Z,12.00
2022-09-18T07:25:34.011Z,12.06
2022-09-18T07:28:10.743Z,12.11
2022-09-18T07:30:39.583Z,12.03
2022-09-18T07:33:09.192Z,12.00
2022-09-18T07:35:36.746Z,12.17
2022-09-18T07:38:06.418Z,12.27
2022-09-18T07:40:34.560Z,12.35
2022-09-18T07:43:07.752Z,12.46
2022-09-18T07:45:36.015Z,12.51
2022-09-18T07:48:08.107Z,12.22
2022-09-18T07:50:35.535Z,12.31
2022-09-18T07:53:05.351Z,12.45
2022-09-18T07:55:35.988Z,12.52
2022-09-18T07:58:07.120Z,12.52
2022-09-18T08:00:36.662Z,12.43
2022-09-18T08:03:13.859Z,12.40
2022-09-18T08:05:43.018Z,12.49
2022-09-18T08:08:15.766Z,12.51
2022-09-18T08:10:45.508Z,12.60
2022-09-18T08:13:12.978Z,12.76
2022-09-18T08:15:44.388Z,12.88
2022-09-18T08:18:13.999Z,12.89
2022-09-18T08:20:43.698Z,12.89
2022-09-18T08:23:15.714Z,12.81
2022-09-18T08:25:49.016Z,12.78
2022-09-18T08:28:27.304Z,12.73
2022-09-18T08:31:01.855Z,12.71
2022-09-18T08:33:29.411Z,12.74
2022-09-18T08:36:04.491Z,12.79
2022-09-18T08:38:32.332Z,12.83
2022-09-18T08:41:14.945Z,12.78
2022-09-18T08:44:21.815Z,12.90
2022-09-18T08:47:18.702Z,12.98
2022-09-18T08:50:22.707Z,12.95
2022-09-18T08:53:14.604Z,12.86
2022-09-18T08:55:48.558Z,12.97
2022-09-18T08:58:56.983Z,13.03
2022-09-18T09:01:49.953Z,13.14
2022-09-18T09:04:28.130Z,13.20
2022-09-18T09:07:31.535Z,13.05
2022-09-18T09:10:49.935Z,12.98
2022-09-18T09:14:01.470Z,13.24
2022-09-18T09:16:43.152Z,13.05
2022-09-18T09:19:32.504Z,13.10
2022-09-18T09:22:39.833Z,13.36
2022-09-18T09:25:38.304Z,13.39
2022-09-18T09:28:18.507Z,13.42
2022-09-18T09:30:56.110Z,13.43
2022-09-18T09:33:39.423Z,13.50
2022-09-18T09:36:15.844Z,13.55
2022-09-18T09:38:56.060Z,13.47
2022-09-18T09:41:45.190Z,13.49
2022-09-18T09:44:53.974Z,13.64
2022-09-18T09:47:45.549Z,13.72
2022-09-18T09:50:51.450Z,13.64
2022-09-18T09:53:19.898Z,13.62
2022-09-18T09:56:20.259Z,13.67
2022-09-18T09:58:59.352Z,13.81
2022-09-18T10:01:35.275Z,13.89
2022-09-18T10:04:29.555Z,13.91
2022-09-18T10:07:25.641Z,14.05
2022-09-18T10:10:26.772Z,14.05
2022-09-18T10:13:06.479Z,14.04
2022-09-18T10:15:37.862Z,14.03
2022-09-18T10:18:16.619Z,14.13
2022-09-18T10:20:46.735Z,14.23
2022-09-18T10:23:20.905Z,14.27
2022-09-18T10:26:01.006Z,14.14
2022-09-18T10:28:31.104Z,14.22
2022-09-18T10:31:13.577Z,14.25
2022-09-18T10:33:47.686Z,14.25
2022-09-18T10:36:23.629Z,14.20
2022-09-18T10:38:51.995Z,14.12
2022-09-18T10:41:22.939Z,14.22
2022-09-18T10:44:24.686Z,14.21
2022-09-18T10:47:09.353Z,14.20
2022-09-18T10:49:49.773Z,14.27
2022-09-18T10:52:36.787Z,14.23
2022-09-18T10:55:07.256Z,14.37
2022-09-18T10:57:56.371Z,14.30
2022-09-18T11:00:27.244Z,14.37
2022-09-18T11:02:59.767Z,14.46
2022-09-18T11:05:33.101Z,14.62
2022-09-18T11:08:06.627Z,14.67
2022-09-18T11:10:34.325Z,14.76
2022-09-18T11:13:03.971Z,14.66
2022-09-18T11:15:36.380Z,14.82
2022-09-18T11:18:13.909Z,14.84
2022-09-18T11:20:46.624Z,14.81
2022-09-18T11:23:28.843Z,14.76
2022-09-18T11:26:28.398Z,14.78
2022-09-18T11:29:16.294Z,14.64
2022-09-18T11:31:55.233Z,14.69
2022-09-18T11:34:33.199Z,14.92
2022-09-18T11:37:07.107Z,14.96
2022-09-18T11:39:44.301Z,15.12
2022-09-18T11:42:16.198Z,15.28
2022-09-18T11:44:45.295Z,15.22
2022-09-18T11:47:26.948Z,15.31
2022-09-18T11:50:19.286Z,15.16
2022-09-18T11:52:58.948Z,15.03
2022-09-18T11:55:36.617Z,15.20
2022-09-18T11:58:12.632Z,15.24
2022-09-18T12:01:06.786Z,15.27
2022-09-18T12:03:55.274Z,15.47
2022-09-18T12:06:50.336Z,15.43
2022-09-18T12:09:48.968Z,15.31
2022-09-18T12:12:27.195Z,15.39
2022-09-18T12:15:09.614Z,15.34
2022-09-18T12:18:08.749Z,15.14
2022-09-18T12:21:04.926Z,15.13
2022-09-18T12:23:32.411Z,14.92
2022-09-18T12:26:32.357Z,14.84
2022-09-18T12:29:24.043Z,14.73
2022-09-18T12:32:11.655Z,14.62
2022-09-18T12:35:30.962Z,14.78
2022-09-18T12:38:06.879Z,14.82
2022-09-18T12:40:51.696Z,14.93
2022-09-18T12:43:45.085Z,14.96
2022-09-18T12:46:42.905Z,14.90
2022-09-18T12:49:36.998Z,14.83
2022-09-18T12:52:12.995Z,14.87
2022-09-18T12:55:36.363Z,15.01
2022-09-18T12:58:31.028Z,15.08
2022-09-18T13:01:04.370Z,15.11
2022-09-18T13:03:38.673Z,15.09
2022-09-18T13:06:25.305Z,15.06
2022-09-18T13:09:02.174Z,14.93
2022-09-18T13:11:42.828Z,14.83
2022-09-18T13:14:24.818Z,14.86
2022-09-18T13:17:12.200Z,15.07
2022-09-18T13:19:50.575Z,15.17
2022-09-18T13:22:21.344Z,15.25
2022-09-18T13:24:55.505Z,15.35
2022-09-18T13:27:25.601Z,15.35
2022-09-18T13:29:52.854Z,15.26
2022-09-18T13:32:42.254Z,15.26
2022-09-18T13:35:12.457Z,15.17
2022-09-18T13:37:42.485Z,15.23
2022-09-18T13:40:39.565Z,15.37
2022-09-18T13:43:28.431Z,15.34
2022-09-18T13:46:07.072Z,15.32
2022-09-18T13:48:45.683Z,15.37
2022-09-18T13:51:29.517Z,15.44
2022-09-18T13:54:13.719Z,15.50
2022-09-18T13:57:03.190Z,15.56
2022-09-18T13:59:54.297Z,15.67
2022-09-18T14:02:37.752Z,15.71
2022-09-18T14:05:09.915Z,15.73
2022-09-18T14:07:36.752Z,15.79
2022-09-18T14:10:21.565Z,15.79
2022-09-18T14:13:19.195Z,15.80
2022-09-18T14:16:09.297Z,15.78
2022-09-18T14:18:48.293Z,15.76
2022-09-18T14:21:26.894Z,15.78
2022-09-18T14:24:38.863Z,15.71
2022-09-18T14:27:57.438Z,15.73
2022-09-18T14:30:29.231Z,15.77
2022-09-18T14:33:08.271Z,15.79
2022-09-18T14:35:50.036Z,15.82
2022-09-18T14:38:26.757Z,15.72
2022-09-18T14:41:23.167Z,15.77
2022-09-18T14:44:04.250Z,15.78
2022-09-18T14:46:32.863Z,15.64
2022-09-18T14:49:01.887Z,15.64
2022-09-18T14:51:44.728Z,15.62
2022-09-18T14:54:24.820Z,15.65
2022-09-18T14:56:58.942Z,15.62
2022-09-18T14:59:28.835Z,15.57
2022-09-18T15:02:23.032Z,15.51
2022-09-18T15:04:50.641Z,15.52
2022-09-18T15:07:23.306Z,15.48
2022-09-18T15:09:56.605Z,15.37
2022-09-18T15:12:26.350Z,15.44
2022-09-18T15:14:54.606Z,15.42
2022-09-18T15:17:26.762Z,15.38
2022-09-18T15:20:13.981Z,15.34
2022-09-18T15:22:41.730Z,15.26
2022-09-18T15:25:14.693Z,15.31
2022-09-18T15:27:43.630Z,15.25
2022-09-18T15:30:19.639Z,15.30
2022-09-18T15:33:04.103Z,15.34
2022-09-18T15:35:38.837Z,15.40
2022-09-18T15:38:19.951Z,15.36
2022-09-18T15:40:48.662Z,15.41
2022-09-18T15:43:31.065Z,15.26
2022-09-18T15:46:08.563Z,15.29
2022-09-18T15:48:44.213Z,15.11
2022-09-18T15:51:24.823Z,15.21
2022-09-18T15:54:10.795Z,15.15
2022-09-18T15:56:53.742Z,15.15
2022-09-18T15:59:33.550Z,15.08
2022-09-18T16:02:08.123Z,15.04
2022-09-18T16:04:36.569Z,14.99
2022-09-18T16:07:18.334Z,14.89
2022-09-18T16:09:48.155Z,14.82
2022-09-18T16:12:30.371Z,14.70
2022-09-18T16:15:19.340Z,14.59
2022-09-18T16:17:46.419Z,14.56
2022-09-18T16:20:34.645Z,14.50
2022-09-18T16:23:59.034Z,14.39
2022-09-18T16:26:32.993Z,14.33
2022-09-18T16:29:02.912Z,14.24
2022-09-18T16:31:35.078Z,14.20
2022-09-18T16:34:21.759Z,14.14
2022-09-18T16:36:51.084Z,14.03
2022-09-18T16:39:26.099Z,14.00
2022-09-18T16:41:53.883Z,13.96
2022-09-18T16:44:21.014Z,13.82
2022-09-18T16:46:55.825Z,13.77
2022-09-18T16:49:28.654Z,13.78
2022-09-18T16:52:01.766Z,13.73
2022-09-18T16:54:32.014Z,13.76
2022-09-18T16:57:21.273Z,13.76
2022-09-18T16:59:51.693Z,13.68
2022-09-18T17:02:25.821Z,13.70
2022-09-18T17:04:53.737Z,13.71
2022-09-18T17:07:22.669Z,13.71
2022-09-18T17:09:56.762Z,13.68
2022-09-18T17:12:31.571Z,13.64
2022-09-18T17:14:58.990Z,13.57
2022-09-18T17:17:27.795Z,13.56
2022-09-18T17:19:57.375Z,13.56
2022-09-18T17:22:24.543Z,13.52
2022-09-18T17:25:02.706Z,13.50
2022-09-18T17:27:30.178Z,13.48
2022-09-18T17:30:00.950Z,13.47
2022-09-18T17:32:27.882Z,13.38
2022-09-18T17:34:56.969Z,13.37
2022-09-18T17:37:26.684Z,13.33
2022-09-18T17:39:54.046Z,13.13
2022-09-18T17:42:21.516Z,13.02
2022-09-18T17:44:48.995Z,12.79
2022-09-18T17:47:16.199Z,12.64
2022-09-18T17:49:46.706Z,12.52
2022-09-18T17:52:29.687Z,12.36
2022-09-18T17:55:00.709Z,12.24
2022-09-18T17:57:35.436Z,12.16
2022-09-18T18:00:07.765Z,12.12
2022-09-18T18:02:34.823Z,12.11
2022-09-18T18:05:13.758Z,12.06
2022-09-18T18:07:47.144Z,12.03
2022-09-18T18:13:25.744Z,12.02
2022-09-18T18:16:26.236Z,12.00
2022-09-18T18:19:18.762Z,11.93
2022-09-18T18:21:50.775Z,11.95
2022-09-18T18:24:31.920Z,11.84
2022-09-18T18:27:03.076Z,11.67
2022-09-18T18:30:00.758Z,11.70
2022-09-18T18:32:43.049Z,11.61
2022-09-18T18:35:15.943Z,11.61
2022-09-18T18:37:44.898Z,11.60
2022-09-18T18:43:14.588Z,11.57
2022-09-18T18:45:56.109Z,11.56
2022-09-18T18:48:27.818Z,11.44
2022-09-18T18:54:03.938Z,11.28
2022-09-18T18:56:37.776Z,11.18
2022-09-18T18:59:15.867Z,11.24
2022-09-18T19:01:47.740Z,11.13
2022-09-18T19:04:21.549Z,11.15
2022-09-18T19:06:56.932Z,11.22
2022-09-18T19:09:26.679Z,11.25
2022-09-18T19:11:54.233Z,11.17
2022-09-18T19:14:31.862Z,11.12
2022-09-18T19:17:02.529Z,11.17
2022-09-18T19:19:30.909Z,11.20
2022-09-18T19:21:59.701Z,11.22
2022-09-18T19:24:28.830Z,11.20
2022-09-18T19:26:59.255Z,11.25
2022-09-18T19:29:28.999Z,11.22
2022-09-18T19:31:58.551Z,11.24
2022-09-18T19:34:27.872Z,11.24
2022-09-18T19:36:56.074Z,11.29
2022-09-18T19:39:24.730Z,11.33
2022-09-18T19:42:08.101Z,11.37
2022-09-18T19:44:44.630Z,11.41
2022-09-18T19:47:26.053Z,11.44
2022-09-18T19:49:55.639Z,11.49
2022-09-18T19:52:28.816Z,11.51
2022-09-18T19:54:58.490Z,11.52
2022-09-18T19:57:28.687Z,11.53
2022-09-18T19:59:57.221Z,11.51
2022-09-18T20:02:25.504Z,11.49
2022-09-18T20:04:52.689Z,11.48
2022-09-18T20:07:20.775Z,11.51
2022-09-18T20:09:48.792Z,11.46
2022-09-18T20:12:15.947Z,11.48
2022-09-18T20:14:43.054Z,11.49
2022-09-18T20:17:11.091Z,11.53
2022-09-18T20:19:38.134Z,11.51
2022-09-18T20:22:06.013Z,11.54
2022-09-18T20:24:36.118Z,11.56
2022-09-18T20:27:03.486Z,11.60
2022-09-18T20:29:31.157Z,11.59
2022-09-18T20:31:58.811Z,11.59
2022-09-18T20:34:26.591Z,11.54
2022-09-18T20:36:54.932Z,11.50
2022-09-18T20:39:22.284Z,11.50
2022-09-18T20:41:51.278Z,11.58
2022-09-18T20:44:19.232Z,11.62
2022-09-18T20:46:47.104Z,11.62
2022-09-18T20:49:17.453Z,11.63
2022-09-18T20:51:47.069Z,11.68
2022-09-18T20:54:16.056Z,11.63
2022-09-18T20:56:44.357Z,11.68
2022-09-18T20:59:16.635Z,11.73
2022-09-18T21:01:47.379Z,11.72
2022-09-18T21:04:19.686Z,11.74
2022-09-18T21:06:57.772Z,11.78
2022-09-18T21:09:28.749Z,11.73
2022-09-18T21:11:57.258Z,11.69
2022-09-18T21:14:25.728Z,11.75
2022-09-18T21:16:54.051Z,11.79
2022-09-18T21:19:24.103Z,11.81
2022-09-18T21:21:52.546Z,11.81
2022-09-18T21:24:22.805Z,11.73
2022-09-18T21:26:51.397Z,11.81
2022-09-18T21:29:26.428Z,11.81
2022-09-18T21:32:02.043Z,11.84
2022-09-18T21:34:33.628Z,11.84
2022-09-18T21:37:08.794Z,11.81
2022-09-18T21:39:39.629Z,11.83
2022-09-18T21:42:10.227Z,11.80
2022-09-18T21:44:39.602Z,11.74
2022-09-18T21:47:11.879Z,11.75
2022-09-18T21:49:39.592Z,11.79
2022-09-18T21:52:09.058Z,11.82
2022-09-18T21:54:36.853Z,11.80
2022-09-18T21:57:05.087Z,11.81
2022-09-18T21:59:32.722Z,11.85
2022-09-18T22:02:03.643Z,11.86
2022-09-18T22:04:32.925Z,11.86
2022-09-18T22:07:02.125Z,11.84
2022-09-18T22:09:35.659Z,11.80
2022-09-18T22:12:03.927Z,11.85
2022-09-18T22:14:34.979Z,11.85
2022-09-18T22:17:06.607Z,11.84
2022-09-18T22:19:38.043Z,11.83
2022-09-18T22:22:07.862Z,11.83
2022-09-18T22:24:35.569Z,11.84
2022-09-18T22:27:08.697Z,11.85
2022-09-18T22:29:39.507Z,11.85
2022-09-18T22:32:08.297Z,11.82
2022-09-18T22:34:36.552Z,11.75
2022-09-18T22:37:05.102Z,11.78
2022-09-18T22:39:32.666Z,11.73
2022-09-18T22:42:00.194Z,11.68
2022-09-18T22:44:27.547Z,11.55
2022-09-18T22:46:54.750Z,11.58
2022-09-18T22:49:23.980Z,11.64
2022-09-18T22:51:52.087Z,11.66
2022-09-18T22:54:24.599Z,11.67
2022-09-18T22:56:53.224Z,11.64
2022-09-18T22:59:24.324Z,11.65
2022-09-18T23:02:00.703Z,11.67
2022-09-18T23:04:31.138Z,11.67
2022-09-18T23:06:59.500Z,11.62
2022-09-18T23:09:28.113Z,11.51
2022-09-18T23:11:57.159Z,11.55
2022-09-18T23:14:28.596Z,11.54
2022-09-18T23:16:58.223Z,11.55
2022-09-18T23:19:32.821Z,11.57
2022-09-18T23:22:00.348Z,11.56
2022-09-18T23:24:28.192Z,11.42
2022-09-18T23:26:58.608Z,11.42
2022-09-18T23:29:28.496Z,11.43
2022-09-18T23:31:57.638Z,11.51
2022-09-18T23:34:30.890Z,11.54
2022-09-18T23:37:00.400Z,11.53
2022-09-18T23:39:34.644Z,11.52
2022-09-18T23:42:05.820Z,11.54
2022-09-18T23:44:34.319Z,11.48
2022-09-18T23:47:01.927Z,11.47
2022-09-18T23:49:30.293Z,11.28
2022-09-18T23:51:59.560Z,11.31
2022-09-18T23:54:29.944Z,11.30
2022-09-18T23:56:57.640Z,11.22
2022-09-18T23:59:27.534Z,11.22
